Time;durP1;ratioP1;P1;durP2;ratioP2;P2;SDS_P1;SDS_P2;PMS_P1;PMS_P2;Temp;Humidity;BMP_temperature;BMP_pressure;BME280_temperature;BME280_humidity;BME280_pressure;Samples;Min_cycle;Max_cycle;Signal;HPM_P1;HPM_P2
2022/11/15 00:00:50;;;;;;;18.27;10.40;;;;;;;12.11;100.00;99959.38;8323701;28;20468;-50
2022/11/15 00:05:10;;;;;;;18.38;10.38;;;;;;;11.99;100.00;99944.41;8313300;28;20515;-51
2022/11/15 00:09:31;;;;;;;14.57;10.25;;;;;;;11.96;100.00;99950.16;8294057;28;20037;-52
2022/11/15 00:13:54;;;;;;;17.83;10.10;;;;;;;12.07;100.00;99947.16;8324534;28;20044;-53
2022/11/15 00:18:15;;;;;;;14.50;9.18;;;;;;;12.27;100.00;99959.41;8326247;28;20045;-53
2022/11/15 00:22:36;;;;;;;13.65;8.70;;;;;;;12.48;100.00;99951.69;8326729;28;20036;-55
2022/11/15 00:26:56;;;;;;;13.38;8.38;;;;;;;12.65;100.00;99945.25;8326160;28;20119;-51
2022/11/15 00:31:17;;;;;;;12.88;7.88;;;;;;;12.85;100.00;99950.22;8276134;28;20460;-51
2022/11/15 00:35:37;;;;;;;12.15;7.68;;;;;;;12.90;100.00;99945.09;8290496;28;20038;-51
2022/11/15 00:39:58;;;;;;;10.63;6.38;;;;;;;12.93;100.00;99938.50;8325535;28;20068;-53
2022/11/15 00:44:18;;;;;;;13.32;7.32;;;;;;;12.94;100.00;99937.47;8325137;28;20041;-54
2022/11/15 00:48:39;;;;;;;11.13;7.15;;;;;;;13.05;100.00;99934.47;8325690;28;20043;-50
2022/11/15 00:52:59;;;;;;;12.07;7.13;;;;;;;13.13;100.00;99932.59;8325039;28;20452;-53
2022/11/15 00:57:19;;;;;;;11.48;6.60;;;;;;;13.23;100.00;99922.38;8325125;28;20049;-53
2022/11/15 01:01:40;;;;;;;13.23;7.38;;;;;;;13.14;100.00;99930.69;8325034;28;20307;-51
2022/11/15 01:06:00;;;;;;;10.90;6.30;;;;;;;13.09;100.00;99919.53;8309213;28;20046;-52
2022/11/15 01:10:22;;;;;;;9.73;6.40;;;;;;;13.05;100.00;99920.91;8292753;28;20096;-54
2022/11/15 01:14:43;;;;;;;10.52;6.78;;;;;;;12.93;100.00;99923.06;8262475;28;20034;-55
2022/11/15 01:19:03;;;;;;;13.77;6.60;;;;;;;12.91;100.00;99922.41;8258694;28;20054;-52
2022/11/15 01:23:24;;;;;;;9.52;6.63;;;;;;;13.01;100.00;99922.25;8256651;28;20121;-52
2022/11/15 01:27:44;;;;;;;10.77;6.95;;;;;;;13.08;100.00;99918.69;8265926;28;20539;-53
2022/11/15 01:32:05;;;;;;;11.18;7.25;;;;;;;13.15;100.00;99913.41;8323370;28;20037;-53
2022/11/15 01:36:25;;;;;;;11.38;8.00;;;;;;;13.21;100.00;99918.16;8319431;28;20038;-53
2022/11/15 01:40:46;;;;;;;13.52;8.13;;;;;;;13.23;100.00;99906.09;8321372;28;20128;-51
2022/11/15 01:45:13;;;;;;;12.93;8.32;;;;;;;13.18;100.00;99907.66;8322472;28;20589;-53
2022/11/15 01:49:37;;;;;;;13.10;7.78;;;;;;;13.10;100.00;99894.06;8294670;28;20038;-53
2022/11/15 01:54:04;;;;;;;14.02;8.38;;;;;;;13.09;100.00;99886.97;8289123;28;20046;-54
2022/11/15 01:58:24;;;;;;;12.65;7.90;;;;;;;13.16;100.00;99887.97;8300599;28;20587;-51
2022/11/15 02:02:45;;;;;;;15.32;8.48;;;;;;;13.16;100.00;99879.81;8322078;28;20064;-53
2022/11/15 02:07:09;;;;;;;12.00;8.32;;;;;;;13.11;100.00;99880.34;8298435;28;20042;-51
2022/11/15 02:11:30;;;;;;;10.98;8.43;;;;;;;13.09;100.00;99867.97;8300159;28;20584;-51
2022/11/15 02:16:07;;;;;;;17.45;9.52;;;;;;;12.81;100.00;99859.31;8319293;28;20065;-54
2022/11/15 02:20:54;;;;;;;16.05;9.23;;;;;;;12.83;100.00;99862.72;8320662;28;20041;-54
2022/11/15 02:25:45;;;;;;;16.70;10.30;;;;;;;12.84;100.00;99863.56;8296546;28;20503;-54
2022/11/15 02:30:35;;;;;;;14.82;9.32;;;;;;;12.91;100.00;99867.28;8313758;28;20045;-54
2022/11/15 02:35:23;;;;;;;13.05;8.95;;;;;;;12.92;100.00;99863.53;8325746;28;20518;-53
2022/11/15 02:39:52;;;;;;;13.95;8.77;;;;;;;12.91;100.00;99864.56;8324537;28;20037;-53
2022/11/15 02:44:23;;;;;;;11.65;7.63;;;;;;;12.99;100.00;99872.72;8326784;28;20076;-54
2022/11/15 02:48:44;;;;;;;9.52;5.32;;;;;;;13.22;100.00;99861.00;8326758;28;20518;-53
2022/11/15 02:53:05;;;;;;;7.28;5.60;;;;;;;13.44;100.00;99859.38;8326010;28;20033;-54
2022/11/15 03:02:21;;;;;;;11.93;7.10;;;;;;;13.53;100.00;99837.47;8355623;27;20471;-50
2022/11/15 03:06:51;;;;;;;12.05;7.85;;;;;;;13.46;100.00;99839.19;8319008;28;20041;-50
2022/11/15 03:11:15;;;;;;;10.23;7.28;;;;;;;13.47;100.00;99837.31;8313055;28;20124;-50
2022/11/15 03:15:42;;;;;;;8.00;5.85;;;;;;;13.68;100.00;99823.97;8319633;28;20045;-50
2022/11/15 03:20:05;;;;;;;9.07;6.10;;;;;;;13.70;100.00;99821.94;8319338;28;20041;-54
2022/11/15 03:24:30;;;;;;;7.50;5.70;;;;;;;13.72;100.00;99833.47;8287540;28;20046;-53
2022/11/15 03:28:55;;;;;;;8.82;5.78;;;;;;;13.58;100.00;99824.19;8299331;28;20125;-50
2022/11/15 03:33:17;;;;;;;7.28;5.47;;;;;;;13.61;100.00;99833.88;8312344;28;20485;-50
2022/11/15 03:37:49;;;;;;;9.05;5.88;;;;;;;13.55;100.00;99834.56;8351071;28;20091;-50
2022/11/15 03:42:36;;;;;;;9.60;5.97;;;;;;;13.48;100.00;99826.28;8291762;28;20538;-51
2022/11/15 03:51:13;;;;;;;8.43;5.40;;;;;;;13.42;100.00;99820.72;8416020;27;20846;-50
2022/11/15 03:55:34;;;;;;;7.40;5.97;;;;;;;13.37;100.00;99820.38;8402823;27;20033;-52
2022/11/15 03:59:54;;;;;;;7.20;5.53;;;;;;;13.32;100.00;99811.91;8403402;27;20044;-53
2022/11/15 04:04:14;;;;;;;9.50;4.60;;;;;;;13.33;100.00;99802.75;8400587;27;20029;-50
2022/11/15 04:08:35;;;;;;;5.40;4.43;;;;;;;13.26;100.00;99801.75;8403261;27;20497;-52
2022/11/15 04:12:55;;;;;;;6.88;5.40;;;;;;;13.14;100.00;99803.16;8384351;28;20052;-50
2022/11/15 04:17:16;;;;;;;8.07;5.25;;;;;;;13.07;100.00;99802.16;8418387;28;20028;-52
2022/11/15 04:26:20;;;;;;;5.55;3.58;;;;;;;13.27;100.00;99811.63;8399405;28;20086;-51
2022/11/15 04:30:40;;;;;;;4.10;3.40;;;;;;;13.27;100.00;99807.00;8402358;27;20059;-51
2022/11/15 04:35:01;;;;;;;4.05;3.63;;;;;;;13.24;100.00;99818.22;8401118;27;20139;-50
2022/11/15 04:39:21;;;;;;;4.50;3.38;;;;;;;13.22;100.00;99817.56;8416641;27;20520;-51
2022/11/15 04:43:42;;;;;;;3.83;3.13;;;;;;;13.25;100.00;99816.34;8401115;27;20516;-51
2022/11/15 04:48:02;;;;;;;4.07;3.00;;;;;;;13.30;100.00;99819.41;8400985;27;20040;-53
2022/11/15 04:52:23;;;;;;;4.40;2.88;;;;;;;13.36;100.00;99824.13;8401703;27;20045;-52
2022/11/15 04:56:43;;;;;;;3.55;2.45;;;;;;;13.48;100.00;99817.31;8396512;27;20064;-54
2022/11/15 05:01:14;;;;;;;3.05;2.40;;;;;;;13.45;100.00;99807.63;8389421;27;20033;-53
2022/11/15 05:05:35;;;;;;;2.53;1.90;;;;;;;13.44;100.00;99810.50;8370477;28;20051;-51
2022/11/15 05:09:56;;;;;;;2.72;2.25;;;;;;;13.29;100.00;99814.97;8380660;28;20123;-54
2022/11/15 05:14:16;;;;;;;4.93;3.03;;;;;;;13.13;100.00;99815.88;8385137;28;20544;-54
2022/11/15 05:18:40;;;;;;;3.17;2.28;;;;;;;12.96;100.00;99822.34;8387907;28;20098;-50
2022/11/15 05:23:00;;;;;;;1.85;1.63;;;;;;;12.94;100.00;99824.38;8385899;28;20402;-53
2022/11/15 05:27:21;;;;;;;2.80;1.63;;;;;;;12.99;100.00;99821.16;8388037;28;20036;-50
2022/11/15 05:31:42;;;;;;;2.15;1.38;;;;;;;12.91;100.00;99818.44;8385637;28;20044;-50
2022/11/15 05:36:07;;;;;;;2.95;1.10;;;;;;;12.81;100.00;99818.63;8388766;28;20029;-51
2022/11/15 05:40:30;;;;;;;1.75;1.23;;;;;;;12.62;100.00;99818.13;8385033;28;20546;-51
2022/11/15 05:44:50;;;;;;;1.65;1.20;;;;;;;12.48;100.00;99811.56;8390246;28;20052;-50
2022/11/15 05:49:15;;;;;;;2.13;1.25;;;;;;;12.31;100.00;99814.41;8390788;28;20386;-50
2022/11/15 05:53:36;;;;;;;3.08;1.10;;;;;;;12.14;100.00;99808.13;8387117;28;20052;-51
2022/11/15 05:57:57;;;;;;;1.80;1.50;;;;;;;12.00;100.00;99807.94;8389837;28;20749;-51
2022/11/15 06:02:18;;;;;;;2.13;1.63;;;;;;;11.90;100.00;99817.06;8384104;28;20052;-50
2022/11/15 06:06:38;;;;;;;2.47;1.40;;;;;;;11.84;100.00;99817.72;8379766;28;20053;-52
2022/11/15 06:11:03;;;;;;;1.90;1.50;;;;;;;11.81;100.00;99831.59;8387701;28;20813;-54
2022/11/15 06:15:24;;;;;;;3.85;1.33;;;;;;;11.67;100.00;99832.25;8380195;28;20028;-51
2022/11/15 06:19:44;;;;;;;2.10;1.55;;;;;;;11.53;100.00;99835.53;8386806;28;20052;-50
2022/11/15 06:24:05;;;;;;;2.08;1.30;;;;;;;11.56;100.00;99840.63;8381129;28;20045;-54
2022/11/15 06:28:31;;;;;;;2.05;1.60;;;;;;;11.29;100.00;99842.72;8364241;28;20412;-52
2022/11/15 06:32:58;;;;;;;5.38;1.95;;;;;;;11.03;100.00;99845.44;8368757;28;20054;-53
2022/11/15 06:37:18;;;;;;;4.72;2.15;;;;;;;11.18;100.00;99867.34;8375836;28;20036;-50
2022/11/15 06:41:39;;;;;;;1.95;1.70;;;;;;;10.97;100.00;99858.75;8401346;28;20086;-49
2022/11/15 06:46:01;;;;;;;3.28;2.30;;;;;;;10.85;100.00;99869.00;8374009;28;20032;-54
2022/11/15 06:50:21;;;;;;;4.65;1.98;;;;;;;10.80;100.00;99874.00;8371803;28;20390;-50
2022/11/15 06:54:42;;;;;;;2.78;2.33;;;;;;;10.58;100.00;99869.09;8372659;28;20063;-50
2022/11/15 06:59:03;;;;;;;6.32;2.03;;;;;;;10.15;100.00;99887.13;8372265;28;20048;-50
2022/11/15 07:03:23;;;;;;;3.05;2.10;;;;;;;9.90;100.00;99878.72;8358149;28;20045;-50
2022/11/15 07:07:51;;;;;;;3.60;2.58;;;;;;;10.07;100.00;99879.78;8370402;28;20442;-50
2022/11/15 07:12:11;;;;;;;2.92;2.30;;;;;;;10.20;100.00;99891.06;8367672;28;20032;-50
2022/11/15 07:16:32;;;;;;;3.33;2.53;;;;;;;10.51;100.00;99886.97;8335806;28;20503;-53
2022/11/15 07:20:52;;;;;;;18.85;9.30;;;;;;;10.49;100.00;99902.47;8337742;28;20112;-54
2022/11/15 07:25:13;;;;;;;11.38;6.00;;;;;;;10.55;100.00;99901.84;8333529;28;20045;-50
2022/11/15 07:29:33;;;;;;;11.07;7.22;;;;;;;10.42;100.00;99909.50;8361134;28;20040;-50
2022/11/15 07:33:54;;;;;;;4.43;2.35;;;;;;;10.31;100.00;99920.53;8373599;28;20033;-53
2022/11/15 07:38:15;;;;;;;2.85;2.30;;;;;;;10.37;100.00;99919.09;8366054;28;20086;-48
2022/11/15 07:43:07;;;;;;;6.47;4.97;;;;;;;10.38;100.00;99920.78;8375224;28;20037;-49
2022/11/15 07:47:16;;;;;;;7.35;6.72;;;;;;;10.44;100.00;99928.28;8374990;28;20037;-50
2022/11/15 07:51:36;;;;;;;12.93;10.10;;;;;;;10.66;100.00;99936.78;8375277;28;20057;-49
2022/11/15 07:55:57;;;;;;;6.00;4.72;;;;;;;10.73;100.00;99921.63;8373448;28;20048;-48
2022/11/15 08:00:18;;;;;;;4.90;3.22;;;;;;;10.83;100.00;99914.25;8374373;28;20052;-53
2022/11/15 08:04:38;;;;;;;6.47;3.53;;;;;;;10.87;100.00;99912.94;8375127;28;20033;-53
2022/11/15 08:08:59;;;;;;;3.13;2.65;;;;;;;11.18;100.00;99921.44;8375007;28;20314;-49
2022/11/15 08:13:20;;;;;;;3.25;2.40;;;;;;;11.50;100.00;99919.78;8385570;28;20041;-52
2022/11/15 08:17:41;;;;;;;5.07;2.72;;;;;;;11.60;100.00;99917.81;8391239;28;20444;-49
2022/11/15 08:22:01;;;;;;;2.83;2.22;;;;;;;11.54;100.00;99906.78;8388838;28;20037;-53
2022/11/15 08:26:22;;;;;;;2.85;2.30;;;;;;;11.70;100.00;99913.16;8391187;28;20461;-49
2022/11/15 08:30:45;;;;;;;3.08;2.00;;;;;;;11.87;100.00;99900.53;8391266;28;20036;-51
2022/11/15 08:35:06;;;;;;;3.83;2.17;;;;;;;12.13;99.17;99895.03;8392806;28;20497;-49
2022/11/15 08:39:26;;;;;;;3.97;1.77;;;;;;;13.02;94.40;99888.69;8378561;28;20076;-50
2022/11/15 08:43:47;;;;;;;3.70;1.42;;;;;;;13.74;88.58;99880.31;8374753;28;20032;-50
2022/11/15 08:48:07;;;;;;;5.90;2.00;;;;;;;14.21;86.19;99881.09;8379323;28;20110;-53
2022/11/15 08:52:28;;;;;;;2.20;1.67;;;;;;;13.89;86.92;99886.72;8379939;28;20501;-50
2022/11/15 08:56:48;;;;;;;1.95;1.17;;;;;;;14.34;85.38;99877.81;8399158;28;20033;-50
2022/11/15 09:01:18;;;;;;;4.90;1.10;;;;;;;15.00;81.30;99876.09;8347023;28;20087;-50
2022/11/15 09:05:39;;;;;;;1.23;0.77;;;;;;;15.28;77.87;99870.88;8378121;28;20033;-50
2022/11/15 09:09:59;;;;;;;3.72;0.90;;;;;;;15.04;78.99;99876.56;8379550;28;20656;-50
2022/11/15 09:14:20;;;;;;;3.50;1.10;;;;;;;15.42;78.31;99868.19;8378210;28;20414;-52
2022/11/15 09:18:41;;;;;;;1.23;0.70;;;;;;;15.66;77.35;99867.91;8370982;28;20052;-50
2022/11/15 09:23:03;;;;;;;1.90;1.02;;;;;;;16.00;77.27;99863.72;8378620;28;20031;-52
2022/11/15 09:27:28;;;;;;;1.92;0.98;;;;;;;16.61;75.29;99858.56;8378849;28;20549;-49
2022/11/15 09:31:48;;;;;;;2.83;0.82;;;;;;;16.20;75.71;99845.72;8378811;28;20119;-50
2022/11/15 09:36:09;;;;;;;1.60;0.90;;;;;;;15.81;76.24;99845.25;8378597;28;20056;-50
2022/11/15 09:40:32;;;;;;;4.75;0.82;;;;;;;16.11;74.00;99835.97;8377735;28;20044;-50
2022/11/15 09:45:29;;;;;;;1.25;0.60;;;;;;;17.48;68.82;99821.69;8376889;28;20386;-50
2022/11/15 09:49:59;;;;;;;3.25;0.60;;;;;;;17.05;68.92;99814.66;8373978;28;20072;-51
2022/11/15 09:58:32;;;;;;;2.67;0.52;;;;;;;18.04;63.40;99795.84;8412923;27;20981;-49
2022/11/15 10:03:01;;;;;;;2.65;0.47;;;;;;;18.02;62.62;99786.97;8391926;27;20061;-51
2022/11/15 10:11:40;;;;;;;3.40;0.65;;;;;;;17.63;61.81;99790.41;8420953;27;20439;-50
2022/11/15 10:15:45;;;;;;;3.13;0.50;;;;;;;18.21;59.08;99768.94;8419782;28;20036;-52
2022/11/15 10:19:50;;;;;;;;;;;;;;;18.64;57.79;99779.34;8419564;28;20071;-52
2022/11/15 10:23:53;;;;;;;2.83;0.40;;;;;;;18.70;56.04;99780.41;8419116;28;19916;-51
2022/11/15 10:27:58;;;;;;;3.88;0.50;;;;;;;18.74;55.94;99771.56;8419576;28;20120;-52
2022/11/15 10:31:59;;;;;;;1.90;0.45;;;;;;;18.35;56.85;99768.75;8419527;28;20041;-52
2022/11/15 10:36:17;;;;;;;6.35;0.52;;;;;;;18.58;56.77;99776.59;8419464;28;20036;-52
2022/11/15 10:40:22;;;;;;;1.88;0.50;;;;;;;18.83;56.04;99764.81;8418847;28;20025;-54
2022/11/15 10:44:28;;;;;;;3.00;0.50;;;;;;;19.14;54.95;99761.38;8419052;28;20547;-50
2022/11/15 10:48:28;;;;;;;1.75;0.55;;;;;;;18.25;55.69;99743.69;8419221;28;20051;-51
2022/11/15 10:52:31;;;;;;;3.40;0.50;;;;;;;18.47;56.45;99745.22;8418378;28;20040;-50
2022/11/15 10:56:32;;;;;;;1.05;0.30;;;;;;;19.52;54.42;99736.84;8417268;28;20028;-50
2022/11/15 11:00:36;;;;;;;1.73;0.32;;;;;;;18.90;55.10;99743.72;8399304;28;20102;-53
2022/11/15 11:04:52;;;;;;;;;;;;;;;18.67;55.95;99726.88;8419036;28;20036;-50
2022/11/15 11:08:55;;;;;;;1.90;0.30;;;;;;;19.47;54.78;99696.38;8418665;28;19920;-50
2022/11/15 11:13:12;;;;;;;1.15;0.38;;;;;;;19.26;54.68;99727.66;8400671;28;20052;-50
2022/11/15 11:17:26;;;;;;;2.92;0.30;;;;;;;19.09;54.84;99723.66;8417301;28;20132;-50
2022/11/15 11:21:51;;;;;;;1.23;0.40;;;;;;;19.06;55.60;99715.88;8403333;28;20362;-51
2022/11/15 11:26:16;;;;;;;3.17;0.50;;;;;;;19.39;55.73;99705.69;8394504;28;20290;-51
2022/11/15 11:30:21;;;;;;;2.35;0.70;;;;;;;19.45;56.51;99704.81;8395163;28;20044;-51
2022/11/15 11:34:54;;;;;;;3.20;0.50;;;;;;;19.19;56.97;99698.56;8395103;28;20127;-51
2022/11/15 11:39:34;;;;;;;4.18;0.45;;;;;;;18.75;58.01;99695.69;8394747;28;20524;-51
2022/11/15 11:43:58;;;;;;;1.17;0.47;;;;;;;17.78;60.64;99696.47;8387972;28;20067;-51
2022/11/15 11:48:13;;;;;;;2.75;0.60;;;;;;;16.93;63.01;99696.09;8388722;28;20067;-53
2022/11/15 11:52:26;;;;;;;3.70;0.50;;;;;;;16.88;63.18;99677.56;8374758;28;20040;-50
2022/11/15 11:56:32;;;;;;;4.17;0.67;;;;;;;16.97;64.04;99659.13;8394386;28;20024;-50
2022/11/15 12:00:40;;;;;;;4.05;0.63;;;;;;;16.93;64.14;99649.66;8394015;28;25244;-52
2022/11/15 12:04:47;;;;;;;2.67;0.70;;;;;;;16.64;65.69;99636.25;8393062;28;20098;-54
2022/11/15 12:09:00;;;;;;;5.85;0.80;;;;;;;16.29;67.12;99648.16;8390833;28;20038;-51
2022/11/15 12:13:08;;;;;;;3.00;0.57;;;;;;;16.11;68.54;99645.09;8392455;28;20040;-52
2022/11/15 12:17:11;;;;;;;3.25;0.40;;;;;;;16.11;69.02;99626.84;8372053;28;20043;-50
2022/11/15 12:25:57;;;;;;;3.40;0.90;;;;;;;15.77;71.36;99622.13;8420837;27;20745;-53
2022/11/15 12:30:03;;;;;;;4.72;0.65;;;;;;;15.91;70.63;99609.47;8418429;28;20036;-53
2022/11/15 12:34:30;;;;;;;3.70;0.70;;;;;;;15.89;70.61;99597.91;8401101;28;20036;-49
2022/11/15 12:38:54;;;;;;;3.75;0.80;;;;;;;16.10;70.23;99594.31;8416326;28;20037;-50
2022/11/15 12:47:27;;;;;;;1.95;0.60;;;;;;;16.21;70.69;99580.13;8403083;27;20474;-49
2022/11/15 13:04:47;;;;;;;2.08;0.80;;;;;;;15.98;73.28;99558.56;8422423;27;20952;-51
2022/11/15 13:08:50;;;;;;;5.13;0.88;;;;;;;15.81;73.95;99531.78;8418508;28;20035;-50
2022/11/15 13:12:56;;;;;;;4.47;1.10;;;;;;;15.77;74.37;99524.00;8396425;28;20502;-53
2022/11/15 13:23:04;;;;;;;3.47;0.90;;;;;;;15.85;74.62;99530.38;8440658;27;20854;-53
2022/11/15 13:26:13;;;;;;;2.03;0.85;;;;;;;15.77;75.29;99518.56;8397635;27;20452;-50
2022/11/15 13:30:20;;;;;;;3.13;1.05;;;;;;;15.65;75.90;99519.31;8382924;27;20441;-50
2022/11/15 13:34:32;;;;;;;3.72;1.70;;;;;;;15.70;75.68;99506.78;8384420;27;20042;-49
2022/11/15 13:38:36;;;;;;;2.95;1.20;;;;;;;15.72;75.87;99487.50;8386992;27;20039;-50
2022/11/15 13:42:36;;;;;;;3.50;1.20;;;;;;;15.80;75.58;99489.25;8382174;27;20048;-50
2022/11/15 13:46:37;;;;;;;9.40;1.30;;;;;;;15.81;75.33;99490.91;8362354;28;20037;-51
2022/11/15 13:50:39;;;;;;;2.03;0.90;;;;;;;15.91;75.23;99472.31;8353989;28;20041;-51
2022/11/15 13:54:47;;;;;;;4.30;1.23;;;;;;;15.83;75.98;99473.34;8382340;28;20037;-53
2022/11/15 13:58:48;;;;;;;3.65;1.70;;;;;;;15.89;76.23;99463.50;8377741;28;20100;-51
2022/11/15 14:02:49;;;;;;;3.97;1.35;;;;;;;15.91;76.58;99453.22;8381843;28;20094;-49
2022/11/15 14:06:55;;;;;;;4.57;1.30;;;;;;;15.73;77.27;99433.84;8381826;28;20029;-51
2022/11/15 14:11:07;;;;;;;4.75;2.00;;;;;;;15.60;77.99;99440.03;8385068;27;20402;-53
2022/11/15 14:15:30;;;;;;;4.30;1.88;;;;;;;15.49;78.32;99419.63;8381046;28;20452;-50
2022/11/15 14:19:35;;;;;;;2.60;1.50;;;;;;;15.55;78.82;99432.47;8384366;28;20044;-50
2022/11/15 14:23:36;;;;;;;5.78;2.40;;;;;;;15.58;78.59;99423.91;8347631;28;20045;-52
2022/11/15 14:27:36;;;;;;;2.83;2.20;;;;;;;15.62;78.71;99421.63;8395118;27;20097;-53
2022/11/15 14:31:40;;;;;;;5.80;2.35;;;;;;;15.62;78.90;99410.72;8362552;28;20051;-52
2022/11/15 14:35:41;;;;;;;3.85;2.30;;;;;;;15.70;78.38;99403.22;8346776;28;20069;-53
2022/11/15 14:39:41;;;;;;;3.80;1.88;;;;;;;15.68;78.64;99382.69;8326260;28;20042;-49
2022/11/15 14:43:42;;;;;;;3.42;1.67;;;;;;;15.74;78.23;99382.69;8367596;27;20037;-50
2022/11/15 14:47:43;;;;;;;7.13;1.80;;;;;;;15.70;78.61;99383.31;8377800;28;20037;-54
2022/11/15 14:51:44;;;;;;;3.47;2.40;;;;;;;15.58;79.30;99371.28;8357758;28;20047;-50
2022/11/15 14:55:47;;;;;;;4.18;2.53;;;;;;;15.50;80.06;99371.47;8358530;28;20049;-53
2022/11/15 14:59:48;;;;;;;3.92;2.50;;;;;;;15.51;80.05;99357.63;8359073;28;20048;-54
2022/11/15 15:03:51;;;;;;;4.78;2.92;;;;;;;15.40;80.81;99360.91;8358061;28;20498;-55
2022/11/15 15:07:53;;;;;;;4.03;2.47;;;;;;;15.39;80.63;99351.06;8359254;28;20060;-51
2022/11/15 15:11:54;;;;;;;7.75;2.70;;;;;;;15.37;80.96;99347.69;8357845;28;20060;-52
2022/11/15 15:15:55;;;;;;;5.95;2.70;;;;;;;15.34;81.05;99339.88;8374172;28;20071;-53
2022/11/15 15:19:55;;;;;;;6.45;2.95;;;;;;;15.17;81.91;99341.25;8325749;28;20034;-49
2022/11/15 15:23:56;;;;;;;4.35;2.75;;;;;;;15.11;82.40;99330.31;8354082;28;20048;-50
2022/11/15 15:27:58;;;;;;;5.97;2.75;;;;;;;15.08;82.10;99320.66;8358465;28;20120;-51
2022/11/15 15:31:58;;;;;;;4.03;2.28;;;;;;;15.13;82.00;99326.34;8384986;28;20163;-51
2022/11/15 15:35:59;;;;;;;4.20;2.88;;;;;;;15.02;82.83;99320.59;8355462;28;20049;-50
2022/11/15 15:40:00;;;;;;;5.75;2.55;;;;;;;14.91;83.38;99305.66;8377301;27;20054;-49
2022/11/15 15:44:00;;;;;;;3.97;1.90;;;;;;;14.87;83.31;99304.38;8365532;28;20510;-52
2022/11/15 15:48:01;;;;;;;4.97;2.17;;;;;;;14.88;83.38;99297.88;8396190;28;20120;-50
2022/11/15 15:52:01;;;;;;;7.93;2.30;;;;;;;14.86;83.70;99297.25;8341851;28;20338;-50
2022/11/15 15:56:02;;;;;;;4.30;2.17;;;;;;;14.85;83.97;99287.38;8350022;28;20600;-53
2022/11/15 16:00:05;;;;;;;6.40;2.00;;;;;;;14.82;83.94;99287.78;8332263;28;20051;-51
2022/11/15 16:04:25;;;;;;;3.03;1.73;;;;;;;14.78;84.03;99275.63;8399321;27;20568;-51
2022/11/15 16:08:27;;;;;;;4.78;1.95;;;;;;;14.78;84.53;99281.06;8378683;28;20120;-50
2022/11/15 16:12:30;;;;;;;3.65;1.63;;;;;;;14.72;85.11;99291.88;8366250;28;20041;-51
2022/11/15 16:16:30;;;;;;;4.50;2.42;;;;;;;14.74;85.29;99284.38;8388956;28;20101;-51
2022/11/15 16:20:42;;;;;;;4.75;1.90;;;;;;;14.69;86.16;99282.25;8381070;28;20085;-49
2022/11/15 16:24:42;;;;;;;5.60;1.92;;;;;;;14.67;86.87;99292.47;8373457;28;20401;-49
2022/11/15 16:28:43;;;;;;;4.63;2.20;;;;;;;14.65;87.13;99283.69;8390339;28;20065;-54
2022/11/15 16:32:44;;;;;;;5.50;2.38;;;;;;;14.61;87.60;99278.84;8398136;28;20045;-53
2022/11/15 16:36:45;;;;;;;3.92;2.47;;;;;;;14.60;87.76;99275.25;8403260;28;20036;-50
2022/11/15 16:40:46;;;;;;;5.00;2.03;;;;;;;14.60;87.78;99275.25;8374595;28;20490;-50
2022/11/15 16:44:47;;;;;;;5.20;3.03;;;;;;;14.57;88.23;99278.38;8382803;28;20497;-50
2022/11/15 16:48:48;;;;;;;5.47;2.47;;;;;;;14.62;88.10;99280.50;8385749;28;20080;-53
2022/11/15 16:52:51;;;;;;;3.13;1.98;;;;;;;14.60;88.20;99283.44;8329650;28;20038;-52
2022/11/15 16:56:52;;;;;;;4.47;2.30;;;;;;;14.55;88.65;99280.44;8365123;28;20037;-52
2022/11/15 17:00:55;;;;;;;4.20;2.72;;;;;;;14.52;89.30;99274.56;8359858;28;20124;-52
2022/11/15 17:04:55;;;;;;;5.07;2.70;;;;;;;14.56;89.12;99287.59;8371334;27;20072;-50
2022/11/15 17:08:56;;;;;;;7.82;2.65;;;;;;;14.52;89.49;99274.56;8395989;27;20091;-49
2022/11/15 17:12:57;;;;;;;8.68;3.13;;;;;;;14.30;91.89;99270.19;8352343;28;20038;-52
2022/11/15 17:16:57;;;;;;;8.10;4.53;;;;;;;14.05;94.93;99279.69;8323475;28;20037;-50
2022/11/15 17:21:04;;;;;;;18.63;7.93;;;;;;;13.86;98.82;99283.91;8339967;28;20124;-50
2022/11/15 17:25:06;;;;;;;7.80;4.30;;;;;;;13.71;100.00;99283.09;8323155;28;20071;-49
2022/11/15 17:29:06;;;;;;;8.02;5.53;;;;;;;13.60;100.00;99278.13;8326472;28;20060;-53
2022/11/15 17:33:07;;;;;;;11.05;6.97;;;;;;;13.53;100.00;99274.50;8323443;28;20551;-50
2022/11/15 17:37:08;;;;;;;9.85;6.57;;;;;;;13.45;100.00;99269.19;8315732;28;20385;-50
2022/11/15 17:41:13;;;;;;;11.82;8.32;;;;;;;13.35;100.00;99265.91;8317216;28;20033;-50
2022/11/15 17:45:14;;;;;;;13.35;8.50;;;;;;;13.30;100.00;99260.22;8327971;28;20095;-50
2022/11/15 17:49:14;;;;;;;11.18;6.25;;;;;;;13.26;100.00;99251.59;8330136;28;20033;-50
2022/11/15 17:53:15;;;;;;;11.50;7.22;;;;;;;13.21;100.00;99250.50;8340173;28;20733;-50
2022/11/15 17:57:16;;;;;;;13.00;6.07;;;;;;;13.23;100.00;99248.41;8347159;28;20033;-50
2022/11/15 18:01:21;;;;;;;5.63;4.63;;;;;;;13.20;100.00;99248.78;8329193;28;20279;-49
2022/11/15 18:05:22;;;;;;;7.03;4.25;;;;;;;13.20;100.00;99237.94;8358049;28;20589;-49
2022/11/15 18:09:23;;;;;;;5.28;4.03;;;;;;;13.14;100.00;99238.69;8353889;28;20044;-49
2022/11/15 18:13:24;;;;;;;5.93;3.55;;;;;;;13.13;100.00;99228.88;8355709;28;20546;-52
2022/11/15 18:17:24;;;;;;;6.00;3.65;;;;;;;13.11;100.00;99233.63;8356183;28;20414;-50
2022/11/15 18:21:28;;;;;;;8.05;3.35;;;;;;;13.05;100.00;99235.25;8355517;28;20136;-51
2022/11/15 18:25:29;;;;;;;5.95;3.92;;;;;;;13.02;100.00;99224.75;8353149;28;20124;-49
2022/11/15 18:29:31;;;;;;;6.63;4.22;;;;;;;13.01;100.00;99222.22;8384669;28;20044;-49
2022/11/15 18:33:33;;;;;;;5.45;3.90;;;;;;;12.97;100.00;99221.75;8339323;28;20063;-49
2022/11/15 18:37:33;;;;;;;6.35;3.88;;;;;;;12.97;100.00;99205.47;8322555;28;20049;-52
2022/11/15 18:41:35;;;;;;;5.50;3.92;;;;;;;12.97;100.00;99204.63;8350674;28;20072;-50
2022/11/15 18:45:36;;;;;;;5.68;3.78;;;;;;;12.97;100.00;99199.19;8355488;28;20040;-49
2022/11/15 18:49:36;;;;;;;7.07;3.45;;;;;;;12.98;100.00;99195.44;8348584;28;20047;-51
2022/11/15 18:53:38;;;;;;;5.72;3.88;;;;;;;13.03;100.00;99190.34;8352543;28;20049;-50
2022/11/15 18:57:39;;;;;;;5.03;4.10;;;;;;;13.00;100.00;99194.28;8351574;28;20101;-50
2022/11/15 19:01:45;;;;;;;5.85;3.95;;;;;;;13.05;100.00;99197.25;8349444;28;20143;-52
2022/11/15 19:05:46;;;;;;;11.30;4.60;;;;;;;13.05;100.00;99182.88;8331702;28;20043;-49
2022/11/15 19:09:46;;;;;;;8.35;4.05;;;;;;;13.04;100.00;99183.88;8348130;28;20537;-51
2022/11/15 19:13:47;;;;;;;7.72;4.50;;;;;;;13.07;100.00;99175.34;8349598;28;20037;-50
2022/11/15 19:17:47;;;;;;;6.28;4.35;;;;;;;13.05;100.00;99174.72;8350271;28;20041;-50
2022/11/15 19:21:48;;;;;;;9.05;4.90;;;;;;;13.02;100.00;99166.97;8347867;28;20047;-51
2022/11/15 19:25:54;;;;;;;7.20;4.70;;;;;;;13.00;100.00;99166.31;8324329;28;20526;-50
2022/11/15 19:29:55;;;;;;;8.82;5.10;;;;;;;12.99;100.00;99170.03;8341693;28;20239;-53
2022/11/15 19:33:59;;;;;;;8.00;5.63;;;;;;;12.96;100.00;99164.97;8348651;28;20041;-52
2022/11/15 19:37:59;;;;;;;8.60;5.80;;;;;;;12.95;100.00;99157.84;8350583;28;20060;-49
2022/11/15 19:42:00;;;;;;;8.40;5.45;;;;;;;12.93;100.00;99162.63;8350898;28;20052;-49
2022/11/15 19:46:04;;;;;;;7.32;5.00;;;;;;;12.95;100.00;99163.28;8349178;28;20045;-49
2022/11/15 19:50:05;;;;;;;5.53;4.18;;;;;;;12.97;100.00;99163.94;8382821;28;20627;-51
2022/11/15 19:54:08;;;;;;;5.50;4.75;;;;;;;12.96;100.00;99159.56;8348882;28;20041;-53
2022/11/15 19:58:09;;;;;;;8.63;5.25;;;;;;;12.94;100.00;99150.75;8344636;28;20118;-52
2022/11/15 20:02:11;;;;;;;9.23;5.43;;;;;;;12.95;100.00;99152.41;8363943;28;20040;-52
2022/11/15 20:06:16;;;;;;;7.85;5.30;;;;;;;12.93;100.00;99149.06;8354850;28;20040;-51
2022/11/15 20:10:17;;;;;;;11.45;5.90;;;;;;;12.92;100.00;99142.78;8347730;28;20033;-51
2022/11/15 20:14:18;;;;;;;9.43;6.72;;;;;;;12.92;100.00;99147.38;8350170;28;20588;-51
2022/11/15 20:18:20;;;;;;;9.15;6.50;;;;;;;12.88;100.00;99141.50;8348717;28;20044;-54
2022/11/15 20:22:21;;;;;;;9.63;6.85;;;;;;;12.88;100.00;99148.78;8350133;28;20458;-53
2022/11/15 20:26:22;;;;;;;9.77;7.00;;;;;;;12.87;100.00;99141.69;8348757;28;20067;-52
2022/11/15 20:30:22;;;;;;;10.68;6.50;;;;;;;12.90;100.00;99144.03;8349129;28;20406;-51